Time;durP1;ratioP1;P1;durP2;ratioP2;P2;SDS_P1;SDS_P2;PMS_P1;PMS_P2;Temp;Humidity;BMP_temperature;BMP_pressure;BME280_temperature;BME280_humidity;BME280_pressure;Samples;Min_cycle;Max_cycle;Signal;HPM_P1;HPM_P2
2021/11/16 00:01:36;;;;;;;;;;;;;;;;;;2207105;59;1393;-75
2021/11/16 00:04:09;;;;;;;;;;;;;;;;;;2206087;59;1362;-75
2021/11/16 00:06:52;;;;;;;;;;;;;;;;;;2205733;59;1972;-75
2021/11/16 00:09:25;;;;;;;;;;;;;;;;;;2206845;59;1288;-75
2021/11/16 00:11:59;;;;;;;;;;;;;;;;;;2206339;59;1374;-75
2021/11/16 00:14:33;;;;;;;;;;;;;;;;;;2204036;59;1323;-75
2021/11/16 00:17:06;;;;;;;;;;;;;;;;;;2206659;59;1282;-75
2021/11/16 00:19:40;;;;;;;;;;;;;;;;;;2206098;59;1641;-75
2021/11/16 00:22:18;;;;;;;;;;;;;;;;;;2204515;59;1283;-75
2021/11/16 00:25:08;;;;;;;;;;;;;;;;;;2204808;59;1271;-75
2021/11/16 00:27:41;;;;;;;;;;;;;;;;;;2206682;59;1992;-75
2021/11/16 00:30:15;;;;;;;;;;;;;;;;;;2206422;59;1853;-75
2021/11/16 00:32:48;;;;;;;;;;;;;;;;;;2206590;59;1571;-75
2021/11/16 00:35:25;;;;;;;;;;;;;;;;;;2205567;59;1343;-75
2021/11/16 00:38:01;;;;;;;;;;;;;;;;;;2205366;59;1571;-75
2021/11/16 00:40:35;;;;;;;;;;;;;;;;;;2205665;59;1297;-75
2021/11/16 00:43:09;;;;;;;;;;;;;;;;;;2206608;59;1265;-75
2021/11/16 00:45:44;;;;;;;;;;;;;;;;;;2206824;59;1931;-75
2021/11/16 00:48:21;;;;;;;;;;;;;;;;;;2206906;59;1210;-75
2021/11/16 00:50:56;;;;;;;;;;;;;;;;;;2206615;59;1413;-75
2021/11/16 00:53:33;;;;;;;;;;;;;;;;;;2206239;59;1351;-75
2021/11/16 00:56:07;;;;;;;;;;;;;;;;;;2205227;59;1188;-75
2021/11/16 00:58:42;;;;;;;;;;;;;;;;;;2205463;59;1440;-75
2021/11/16 01:01:15;;;;;;;;;;;;;;;;;;2206673;59;1263;-75
2021/11/16 01:03:48;;;;;;;;;;;;;;;;;;2205297;59;1465;-75
2021/11/16 01:06:21;;;;;;;;;;;;;;;;;;2206769;59;1929;-75
2021/11/16 01:09:04;;;;;;;;;;;;;;;;;;2206100;59;1617;-75
2021/11/16 01:11:46;;;;;;;;;;;;;;;;;;2206331;59;1269;-75
2021/11/16 01:14:23;;;;;;;;;;;;;;;;;;2204739;59;1240;-75
2021/11/16 01:16:57;;;;;;;;;;;;;;;;;;2206486;59;1653;-75
2021/11/16 01:19:30;;;;;;;;;;;;;;;;;;2205384;59;2158;-75
2021/11/16 01:22:04;;;;;;;;;;;;;;;;;;2206306;59;1440;-75
2021/11/16 01:24:40;;;;;;;;;;;;;;;;;;2204997;59;1589;-75
2021/11/16 01:27:18;;;;;;;;;;;;;;;;;;2205919;59;1936;-75
2021/11/16 01:29:54;;;;;;;;;;;;;;;;;;2206161;59;1546;-75
2021/11/16 01:32:35;;;;;;;;;;;;;;;;;;2206300;59;1379;-75
2021/11/16 01:35:09;;;;;;;;;;;;;;;;;;2206720;59;1487;-75
2021/11/16 01:37:43;;;;;;;;;;;;;;;;;;2206528;59;1262;-75
2021/11/16 01:40:20;;;;;;;;;;;;;;;;;;2206310;59;1257;-75
2021/11/16 01:42:59;;;;;;;;;;;;;;;;;;2206295;59;1560;-75
2021/11/16 01:45:33;;;;;;;;;;;;;;;;;;2205769;59;1282;-75
2021/11/16 01:48:07;;;;;;;;;;;;;;;;;;2206361;59;1921;-75
2021/11/16 01:50:44;;;;;;;;;;;;;;;;;;2206515;59;1185;-75
2021/11/16 01:53:26;;;;;;;;;;;;;;;;;;2206777;58;1290;-75
2021/11/16 01:56:07;;;;;;;;;;;;;;;;;;2207632;59;1432;-75
2021/11/16 01:58:59;;;;;;;;;;;;;;;;;;2207433;59;1305;-75
2021/11/16 02:01:33;;;;;;;;;;;;;;;;;;2206799;59;1194;-75
2021/11/16 02:04:07;;;;;;;;;;;;;;;;;;2206877;59;1354;-75
2021/11/16 02:06:42;;;;;;;;;;;;;;;;;;2206751;59;1935;-75
2021/11/16 02:09:16;;;;;;;;;;;;;;;;;;2207092;59;1521;-75
2021/11/16 02:11:54;;;;;;;;;;;;;;;;;;2206606;59;1339;-75
2021/11/16 02:14:28;;;;;;;;;;;;;;;;;;2204543;59;1287;-75
2021/11/16 02:17:01;;;;;;;;;;;;;;;;;;2206422;59;1307;-75
2021/11/16 02:19:37;;;;;;;;;;;;;;;;;;2207561;59;1347;-75
2021/11/16 02:22:13;;;;;;;;;;;;;;;;;;2217415;53;2023;-70
2021/11/16 02:24:46;;;;;;;;;;;;;;;;;;2221778;58;1272;-70
2021/11/16 02:27:20;;;;;;;;;;;;;;;;;;2221982;58;1947;-70
2021/11/16 02:29:53;;;;;;;;;;;;;;;;;;2220866;58;1313;-70
2021/11/16 02:32:26;;;;;;;;;;;;;;;;;;2222547;58;1403;-70
2021/11/16 02:35:00;;;;;;;;;;;;;;;;;;2222160;58;1547;-70
2021/11/16 02:37:36;;;;;;;;;;;;;;;;;;2221573;58;1567;-70
2021/11/16 02:40:10;;;;;;;;;;;;;;;;;;2220973;58;1450;-70
2021/11/16 02:42:44;;;;;;;;;;;;;;;;;;2221861;58;1293;-70
2021/11/16 02:45:18;;;;;;;;;;;;;;;;;;2222665;58;1420;-70
2021/11/16 02:47:52;;;;;;;;;;;;;;;;;;2221624;58;1944;-70
2021/11/16 02:50:25;;;;;;;;;;;;;;;;;;2223374;58;1577;-70
2021/11/16 02:53:01;;;;;;;;;;;;;;;;;;2221387;58;1251;-70
2021/11/16 02:55:34;;;;;;;;;;;;;;;;;;2222605;58;1299;-70
2021/11/16 02:58:08;;;;;;;;;;;;;;;;;;2217358;58;1546;-70
2021/11/16 03:00:42;;;;;;;;;;;;;;;;;;2222970;58;1324;-70
2021/11/16 03:03:15;;;;;;;;;;;;;;;;;;2222002;58;1638;-70
2021/11/16 03:05:49;;;;;;;;;;;;;;;;;;2222687;58;1284;-70
2021/11/16 03:08:26;;;;;;;;;;;;;;;;;;2222141;58;1999;-70
2021/11/16 03:11:01;;;;;;;;;;;;;;;;;;2222087;58;1296;-70
2021/11/16 03:13:36;;;;;;;;;;;;;;;;;;2222558;58;1587;-70
2021/11/16 03:16:11;;;;;;;;;;;;;;;;;;2221950;58;1254;-70
2021/11/16 03:18:46;;;;;;;;;;;;;;;;;;2221770;58;1369;-70
2021/11/16 03:21:20;;;;;;;;;;;;;;;;;;2222440;58;1575;-70
2021/11/16 03:23:57;;;;;;;;;;;;;;;;;;2221740;58;1574;-70
2021/11/16 03:26:31;;;;;;;;;;;;;;;;;;2223587;58;1682;-70
2021/11/16 03:29:06;;;;;;;;;;;;;;;;;;2221306;58;1306;-70
2021/11/16 03:31:47;;;;;;;;;;;;;;;;;;2221261;58;1477;-70
2021/11/16 03:34:21;;;;;;;;;;;;;;;;;;2221621;58;1626;-70
2021/11/16 03:36:54;;;;;;;;;;;;;;;;;;2221807;58;1367;-70
2021/11/16 03:39:30;;;;;;;;;;;;;;;;;;2221072;58;1339;-70
2021/11/16 03:42:03;;;;;;;;;;;;;;;;;;2221378;58;1304;-70
2021/11/16 03:44:38;;;;;;;;;;;;;;;;;;2221614;58;1590;-70
2021/11/16 03:47:11;;;;;;;;;;;;;;;;;;2222368;58;1941;-70
2021/11/16 03:49:45;;;;;;;;;;;;;;;;;;2221786;58;1481;-70
2021/11/16 03:52:21;;;;;;;;;;;;;;;;;;2221422;58;1469;-70
2021/11/16 03:54:57;;;;;;;;;;;;;;;;;;2221214;58;1353;-70
2021/11/16 03:57:30;;;;;;;;;;;;;;;;;;2222746;58;2234;-70
2021/11/16 04:00:03;;;;;;;;;;;;;;;;;;2221235;58;1528;-70
2021/11/16 04:02:36;;;;;;;;;;;;;;;;;;2221180;58;1237;-70
2021/11/16 04:05:10;;;;;;;;;;;;;;;;;;2222453;58;1218;-70
2021/11/16 04:07:43;;;;;;;;;;;;;;;;;;2220591;58;1984;-70
2021/11/16 04:10:19;;;;;;;;;;;;;;;;;;2222853;58;1424;-70
2021/11/16 04:12:53;;;;;;;;;;;;;;;;;;2221621;58;1289;-71
2021/11/16 04:15:28;;;;;;;;;;;;;;;;;;2222625;58;1212;-70
2021/11/16 04:18:01;;;;;;;;;;;;;;;;;;2222181;58;1383;-70
2021/11/16 04:20:35;;;;;;;;;;;;;;;;;;2220653;58;1795;-70
2021/11/16 04:23:10;;;;;;;;;;;;;;;;;;2222332;58;1375;-70
2021/11/16 04:25:46;;;;;;;;;;;;;;;;;;2222039;58;1382;-70
2021/11/16 04:28:19;;;;;;;;;;;;;;;;;;2222122;58;1927;-70
2021/11/16 04:30:54;;;;;;;;;;;;;;;;;;2220326;58;2236;-70
2021/11/16 04:33:27;;;;;;;;;;;;;;;;;;2220162;58;1324;-70
2021/11/16 04:36:00;;;;;;;;;;;;;;;;;;2220698;58;1553;-70
2021/11/16 04:38:33;;;;;;;;;;;;;;;;;;2221339;58;1355;-70
2021/11/16 04:41:09;;;;;;;;;;;;;;;;;;2221938;58;1556;-70
2021/11/16 04:43:43;;;;;;;;;;;;;;;;;;2220855;58;1400;-70
2021/11/16 04:46:20;;;;;;;;;;;;;;;;;;2221903;58;1334;-70
2021/11/16 04:48:59;;;;;;;;;;;;;;;;;;2221246;58;2347;-70
2021/11/16 04:51:45;;;;;;;;;;;;;;;;;;2221340;58;1236;-70
2021/11/16 05:03:00;;;;;;;;;;;;;;;;;;2221726;58;1371;-70
2021/11/16 05:05:34;;;;;;;;;;;;;;;;;;2220252;58;1363;-70
2021/11/16 05:08:07;;;;;;;;;;;;;;;;;;2217526;58;1943;-70
2021/11/16 05:10:40;;;;;;;;;;;;;;;;;;2221047;58;1382;-70
2021/11/16 05:13:16;;;;;;;;;;;;;;;;;;2221506;58;1280;-70
2021/11/16 05:15:50;;;;;;;;;;;;;;;;;;2220357;58;1481;-70
2021/11/16 05:18:24;;;;;;;;;;;;;;;;;;2221873;58;1285;-70
2021/11/16 05:20:57;;;;;;;;;;;;;;;;;;2221187;58;1357;-70
2021/11/16 05:23:35;;;;;;;;;;;;;;;;;;2220743;58;1897;-70
2021/11/16 05:26:08;;;;;;;;;;;;;;;;;;2221179;58;1572;-70
2021/11/16 05:28:44;;;;;;;;;;;;;;;;;;2222342;58;1936;-70
2021/11/16 05:31:18;;;;;;;;;;;;;;;;;;2221924;58;1231;-70
2021/11/16 05:33:54;;;;;;;;;;;;;;;;;;2224182;58;1296;-70
2021/11/16 05:36:27;;;;;;;;;;;;;;;;;;2220973;58;2398;-70
2021/11/16 05:39:00;;;;;;;;;;;;;;;;;;2222113;58;1246;-70
2021/11/16 05:41:33;;;;;;;;;;;;;;;;;;2222121;58;1371;-70
2021/11/16 05:44:09;;;;;;;;;;;;;;;;;;2219578;58;1839;-70
2021/11/16 05:46:42;;;;;;;;;;;;;;;;;;2222113;58;1521;-70
2021/11/16 05:49:15;;;;;;;;;;;;;;;;;;2223398;58;1976;-70
2021/11/16 05:51:49;;;;;;;;;;;;;;;;;;2222933;58;2358;-70
2021/11/16 05:54:27;;;;;;;;;;;;;;;;;;2222337;58;1284;-70
2021/11/16 05:57:01;;;;;;;;;;;;;;;;;;2221617;58;2251;-70
2021/11/16 05:59:37;;;;;;;;;;;;;;;;;;2221508;58;1445;-70
2021/11/16 06:02:11;;;;;;;;;;;;;;;;;;2221297;58;1290;-70
2021/11/16 06:04:44;;;;;;;;;;;;;;;;;;2221267;58;1237;-70
2021/11/16 06:07:18;;;;;;;;;;;;;;;;;;2221689;58;1599;-70
2021/11/16 06:09:51;;;;;;;;;;;;;;;;;;2222157;58;1927;-71
2021/11/16 06:12:24;;;;;;;;;;;;;;;;;;2220839;58;2238;-70
2021/11/16 06:15:00;;;;;;;;;;;;;;;;;;2219260;58;1293;-70
2021/11/16 06:17:33;;;;;;;;;;;;;;;;;;2221722;58;1420;-70
2021/11/16 06:20:07;;;;;;;;;;;;;;;;;;2221307;58;1652;-70
2021/11/16 06:22:40;;;;;;;;;;;;;;;;;;2221806;58;1320;-70
2021/11/16 06:25:13;;;;;;;;;;;;;;;;;;2221460;58;1356;-71
2021/11/16 06:27:46;;;;;;;;;;;;;;;;;;2220958;58;1941;-71
2021/11/16 06:30:22;;;;;;;;;;;;;;;;;;2220469;58;1316;-70
2021/11/16 06:32:55;;;;;;;;;;;;;;;;;;2222657;58;1530;-70
2021/11/16 06:35:29;;;;;;;;;;;;;;;;;;2221571;58;1436;-70
2021/11/16 06:38:02;;;;;;;;;;;;;;;;;;2223055;58;1551;-70
2021/11/16 06:40:35;;;;;;;;;;;;;;;;;;2223321;58;1450;-70
2021/11/16 06:43:08;;;;;;;;;;;;;;;;;;2221419;58;1465;-70
2021/11/16 06:45:44;;;;;;;;;;;;;;;;;;2223345;58;1377;-70
2021/11/16 06:48:17;;;;;;;;;;;;;;;;;;2220775;58;1919;-70
2021/11/16 06:50:51;;;;;;;;;;;;;;;;;;2222537;58;1331;-70
2021/11/16 06:53:25;;;;;;;;;;;;;;;;;;2222528;58;2109;-70
2021/11/16 06:55:59;;;;;;;;;;;;;;;;;;2220326;58;1494;-70
2021/11/16 06:58:32;;;;;;;;;;;;;;;;;;2221222;58;2346;-71
2021/11/16 07:01:08;;;;;;;;;;;;;;;;;;2218361;58;1287;-70
2021/11/16 07:03:41;;;;;;;;;;;;;;;;;;2222016;58;1415;-70
2021/11/16 07:06:14;;;;;;;;;;;;;;;;;;2222721;58;1231;-70
2021/11/16 07:08:49;;;;;;;;;;;;;;;;;;2222110;58;1960;-70
2021/11/16 07:11:23;;;;;;;;;;;;;;;;;;2223676;58;1328;-70
2021/11/16 07:14:00;;;;;;;;;;;;;;;;;;2220926;58;2314;-70
2021/11/16 07:16:37;;;;;;;;;;;;;;;;;;2221871;58;1348;-71
2021/11/16 07:19:12;;;;;;;;;;;;;;;;;;2222904;58;1328;-70
2021/11/16 07:21:47;;;;;;;;;;;;;;;;;;2220250;58;1575;-70
2021/11/16 07:24:21;;;;;;;;;;;;;;;;;;2220692;58;2209;-70
2021/11/16 07:26:57;;;;;;;;;;;;;;;;;;2220812;58;1237;-70
2021/11/16 07:29:36;;;;;;;;;;;;;;;;;;2222021;58;1998;-70
2021/11/16 07:32:13;;;;;;;;;;;;;;;;;;2221508;58;1379;-70
2021/11/16 07:34:46;;;;;;;;;;;;;;;;;;2221791;58;1642;-70
2021/11/16 07:37:20;;;;;;;;;;;;;;;;;;2221041;58;1438;-70
2021/11/16 07:39:55;;;;;;;;;;;;;;;;;;2221869;58;1283;-70
2021/11/16 07:42:29;;;;;;;;;;;;;;;;;;2222604;58;1417;-70
2021/11/16 07:45:04;;;;;;;;;;;;;;;;;;2222880;58;1535;-70
2021/11/16 07:47:48;;;;;;;;;;;;;;;;;;2221488;58;1285;-70
2021/11/16 07:50:39;;;;;;;;;;;;;;;;;;2221367;58;1978;-70
2021/11/16 07:53:17;;;;;;;;;;;;;;;;;;2222206;58;1485;-70
2021/11/16 07:56:02;;;;;;;;;;;;;;;;;;2222779;58;1395;-70
2021/11/16 07:58:36;;;;;;;;;;;;;;;;;;2222882;58;1247;-70
2021/11/16 08:01:14;;;;;;;;;;;;;;;;;;2222948;58;1304;-70
2021/11/16 08:03:54;;;;;;;;;;;;;;;;;;2222492;58;2202;-70
2021/11/16 08:06:32;;;;;;;;;;;;;;;;;;2220521;58;1342;-70
2021/11/16 08:09:16;;;;;;;;;;;;;;;;;;2220731;58;1984;-70
2021/11/16 08:11:54;;;;;;;;;;;;;;;;;;2222744;58;1567;-70
2021/11/16 08:14:29;;;;;;;;;;;;;;;;;;2222261;58;2113;-70
2021/11/16 08:17:03;;;;;;;;;;;;;;;;;;2217367;58;2306;-70
2021/11/16 08:19:40;;;;;;;;;;;;;;;;;;2221955;58;1779;-70
2021/11/16 08:22:14;;;;;;;;;;;;;;;;;;2216832;53;3475;-70
2021/11/16 08:24:48;;;;;;;;;;;;;;;;;;2205864;58;1288;-70
2021/11/16 08:27:25;;;;;;;;;;;;;;;;;;2205537;59;1607;-70
2021/11/16 08:30:01;;;;;;;;;;;;;;;;;;2204729;59;1986;-68
2021/11/16 08:32:39;;;;;;;;;;;;;;;;;;2204589;59;1638;-68
2021/11/16 08:35:17;;;;;;;;;;;;;;;;;;2217693;58;1749;-68
2021/11/16 08:37:55;;;;;;;;;;;;;;;;;;2203471;67;1124;-68
2021/11/16 08:40:32;;;;;;;;;;;;;;;;;;2203277;59;2055;-68
2021/11/16 08:43:11;;;;;;;;;;;;;;;;;;2203712;67;1294;-68
2021/11/16 08:45:48;;;;;;;;;;;;;;;;;;2202862;59;1876;-68
2021/11/16 08:48:22;;;;;;;;;;;;;;;;;;2203402;67;1982;-68
2021/11/16 08:50:58;;;;;;;;;;;;;;;;;;2203461;67;1341;-68
2021/11/16 08:53:33;;;;;;;;;;;;;;;;;;2203365;59;2574;-68
2021/11/16 08:56:08;;;;;;;;;;;;;;;;;;2203149;59;1237;-68
2021/11/16 08:58:41;;;;;;;;;;;;;;;;;;2203853;67;1076;-68
2021/11/16 09:01:15;;;;;;;;;;;;;;;;;;2203189;59;1708;-68
2021/11/16 09:03:49;;;;;;;;;;;;;;;;;;2202624;67;1248;-68
2021/11/16 09:06:30;;;;;;;;;;;;;;;;;;2203107;67;1201;-68
2021/11/16 09:09:06;;;;;;;;;;;;;;;;;;2203273;59;1934;-68
2021/11/16 09:11:39;;;;;;;;;;;;;;;;;;2203450;67;1390;-69
2021/11/16 09:14:13;;;;;;;;;;;;;;;;;;2203024;59;1248;-68
2021/11/16 09:16:46;;;;;;;;;;;;;;;;;;2203021;67;1162;-68
2021/11/16 09:19:26;;;;;;;;;;;;;;;;;;2202684;59;1830;-68
2021/11/16 09:22:03;;;;;;;;;;;;;;;;;;2201896;59;1774;-68
2021/11/16 09:24:38;;;;;;;;;;;;;;;;;;2203552;59;1629;-68
2021/11/16 09:27:33;;;;;;;;;;;;;;;;;;2202913;59;1626;-68
2021/11/16 09:30:07;;;;;;;;;;;;;;;;;;2203399;59;1937;-68
2021/11/16 09:32:40;;;;;;;;;;;;;;;;;;2204800;59;1167;-68
2021/11/16 09:35:13;;;;;;;;;;;;;;;;;;2199925;59;1754;-68
2021/11/16 09:37:51;;;;;;;;;;;;;;;;;;2202348;59;1284;-68
2021/11/16 09:40:27;;;;;;;;;;;;;;;;;;2202860;59;2228;-68
2021/11/16 09:43:03;;;;;;;;;;;;;;;;;;2202381;59;2480;-68
2021/11/16 09:45:41;;;;;;;;;;;;;;;;;;2201441;59;2537;-68
2021/11/16 09:48:22;;;;;;;;;;;;;;;;;;2202642;59;1654;-67
2021/11/16 09:50:55;;;;;;;;;;;;;;;;;;2202997;59;1987;-68
2021/11/16 09:53:31;;;;;;;;;;;;;;;;;;2202786;59;2176;-68
2021/11/16 09:56:05;;;;;;;;;;;;;;;;;;2201766;59;1387;-68
2021/11/16 09:58:39;;;;;;;;;;;;;;;;;;2203339;59;2221;-68
2021/11/16 10:01:12;;;;;;;;;;;;;;;;;;2202723;59;2228;-68
2021/11/16 10:03:46;;;;;;;;;;;;;;;;;;2203676;59;1298;-68
2021/11/16 10:06:19;;;;;;;;;;;;;;;;;;2201595;59;1555;-68
2021/11/16 10:08:55;;;;;;;;;;;;;;;;;;2203165;59;2224;-68
2021/11/16 10:11:28;;;;;;;;;;;;;;;;;;2203664;59;2832;-68
2021/11/16 10:14:02;;;;;;;;;;;;;;;;;;2203175;59;2342;-68
2021/11/16 10:16:35;;;;;;;;;;;;;;;;;;2203385;59;2166;-68
2021/11/16 10:19:08;;;;;;;;;;;;;;;;;;2203200;59;1357;-68
2021/11/16 10:21:41;;;;;;;;;;;;;;;;;;2203654;59;1686;-68
2021/11/16 10:24:32;;;;;;;;;;;;;;;;;;2203165;59;1577;-68
2021/11/16 10:27:25;;;;;;;;;;;;;;;;;;2203670;59;2164;-68
2021/11/16 10:30:13;;;;;;;;;;;;;;;;;;2203511;59;2202;-68
2021/11/16 10:32:48;;;;;;;;;;;;;;;;;;2203752;59;2445;-68
2021/11/16 10:35:22;;;;;;;;;;;;;;;;;;2203862;59;1538;-68
2021/11/16 10:37:57;;;;;;;;;;;;;;;;;;2204728;59;1224;-68
2021/11/16 10:40:33;;;;;;;;;;;;;;;;;;2204749;59;1419;-68
2021/11/16 10:43:07;;;;;;;;;;;;;;;;;;2203445;59;2255;-68
2021/11/16 10:45:42;;;;;;;;;;;;;;;;;;2201252;59;2608;-68
2021/11/16 10:48:18;;;;;;;;;;;;;;;;;;2202360;59;2601;-68
2021/11/16 10:50:53;;;;;;;;;;;;;;;;;;2203269;59;1991;-68
2021/11/16 10:53:27;;;;;;;;;;;;;;;;;;2203437;59;1527;-68
2021/11/16 10:56:05;;;;;;;;;;;;;;;;;;2202529;58;2225;-68
2021/11/16 10:58:39;;;;;;;;;;;;;;;;;;2203201;59;1245;-68
2021/11/16 11:01:12;;;;;;;;;;;;;;;;;;2202396;59;1320;-68
2021/11/16 11:03:48;;;;;;;;;;;;;;;;;;2203372;59;1371;-67
2021/11/16 11:06:22;;;;;;;;;;;;;;;;;;2204239;59;1306;-68
2021/11/16 11:08:57;;;;;;;;;;;;;;;;;;2205837;59;1488;-68
2021/11/16 11:11:33;;;;;;;;;;;;;;;;;;2203738;59;1930;-68
2021/11/16 11:14:07;;;;;;;;;;;;;;;;;;2202216;59;1247;-68
2021/11/16 11:16:43;;;;;;;;;;;;;;;;;;2204107;59;1286;-68
2021/11/16 11:19:19;;;;;;;;;;;;;;;;;;2201856;59;1363;-68
2021/11/16 11:21:57;;;;;;;;;;;;;;;;;;2202823;59;1929;-68
2021/11/16 11:24:37;;;;;;;;;;;;;;;;;;2203971;59;1707;-69
2021/11/16 11:27:20;;;;;;;;;;;;;;;;;;2202533;59;1535;-69
2021/11/16 11:29:55;;;;;;;;;;;;;;;;;;2201495;59;1942;-68
2021/11/16 11:32:30;;;;;;;;;;;;;;;;;;2203534;59;2185;-68
2021/11/16 11:35:05;;;;;;;;;;;;;;;;;;2203232;59;1248;-68
2021/11/16 11:37:40;;;;;;;;;;;;;;;;;;2206034;59;1242;-68
2021/11/16 11:40:15;;;;;;;;;;;;;;;;;;2203384;59;1218;-68
2021/11/16 11:42:53;;;;;;;;;;;;;;;;;;2204626;59;1205;-68
2021/11/16 11:45:29;;;;;;;;;;;;;;;;;;2202240;59;1195;-68
2021/11/16 11:48:09;;;;;;;;;;;;;;;;;;2202924;59;2980;-68
2021/11/16 11:50:43;;;;;;;;;;;;;;;;;;2203109;59;1945;-68
2021/11/16 11:53:18;;;;;;;;;;;;;;;;;;2202849;59;1235;-68
2021/11/16 11:55:52;;;;;;;;;;;;;;;;;;2204386;59;1312;-68
2021/11/16 11:58:29;;;;;;;;;;;;;;;;;;2205510;59;1258;-68
2021/11/16 12:01:06;;;;;;;;;;;;;;;;;;2202391;59;1331;-68
2021/11/16 12:03:41;;;;;;;;;;;;;;;;;;2203985;59;1505;-69
2021/11/16 12:06:14;;;;;;;;;;;;;;;;;;2205304;59;1261;-69
2021/11/16 12:08:47;;;;;;;;;;;;;;;;;;2205712;59;1397;-68
2021/11/16 12:11:20;;;;;;;;;;;;;;;;;;2205223;59;1936;-69
2021/11/16 12:14:02;;;;;;;;;;;;;;;;;;2202748;59;1183;-68
2021/11/16 12:16:39;;;;;;;;;;;;;;;;;;2202352;59;1532;-68
2021/11/16 12:19:13;;;;;;;;;;;;;;;;;;2202824;59;1660;-68
2021/11/16 12:21:47;;;;;;;;;;;;;;;;;;2203319;59;1208;-68
2021/11/16 12:24:31;;;;;;;;;;;;;;;;;;2204031;59;1446;-69
2021/11/16 12:27:06;;;;;;;;;;;;;;;;;;2205480;59;1630;-68
2021/11/16 12:29:46;;;;;;;;;;;;;;;;;;2204269;59;1948;-69
2021/11/16 12:32:21;;;;;;;;;;;;;;;;;;2202104;59;1234;-68
2021/11/16 12:34:56;;;;;;;;;;;;;;;;;;2203451;59;1706;-68
2021/11/16 12:37:31;;;;;;;;;;;;;;;;;;2202943;59;1568;-68
2021/11/16 12:40:07;;;;;;;;;;;;;;;;;;2202028;59;1254;-69
2021/11/16 12:42:41;;;;;;;;;;;;;;;;;;2203059;59;1272;-68
2021/11/16 12:45:18;;;;;;;;;;;;;;;;;;2202685;59;1691;-69
2021/11/16 12:47:59;;;;;;;;;;;;;;;;;;2201614;59;2773;-69
2021/11/16 12:50:32;;;;;;;;;;;;;;;;;;2202832;59;2252;-68
2021/11/16 12:53:06;;;;;;;;;;;;;;;;;;2203670;59;1394;-68
2021/11/16 12:55:39;;;;;;;;;;;;;;;;;;2202851;59;1929;-68
2021/11/16 12:58:26;;;;;;;;;;;;;;;;;;2202722;59;1512;-68
2021/11/16 13:01:02;;;;;;;;;;;;;;;;;;2202670;59;1617;-68
2021/11/16 13:03:54;;;;;;;;;;;;;;;;;;2202599;59;1629;-68
2021/11/16 13:06:27;;;;;;;;;;;;;;;;;;2202502;59;1692;-68
2021/11/16 13:09:00;;;;;;;;;;;;;;;;;;2202754;59;1820;-68
2021/11/16 13:11:44;;;;;;;;;;;;;;;;;;2205572;67;2027;-68
2021/11/16 13:14:32;;;;;;;;;;;;;;;;;;2202711;59;1135;-68
2021/11/16 13:17:37;;;;;;;;;;;;;;;;;;2203162;67;1165;-68
2021/11/16 13:20:11;;;;;;;;;;;;;;;;;;2202481;59;1291;-69
2021/11/16 13:22:46;;;;;;;;;;;;;;;;;;2203339;59;1750;-68
2021/11/16 13:25:38;;;;;;;;;;;;;;;;;;2217736;59;1169;-68
2021/11/16 13:28:14;;;;;;;;;;;;;;;;;;2203055;59;1170;-69
2021/11/16 13:30:47;;;;;;;;;;;;;;;;;;2202720;59;1952;-68
2021/11/16 13:33:39;;;;;;;;;;;;;;;;;;2204183;59;1268;-68
2021/11/16 13:36:16;;;;;;;;;;;;;;;;;;2203512;59;1314;-69
2021/11/16 13:38:56;;;;;;;;;;;;;;;;;;2205157;59;1470;-68
2021/11/16 13:41:43;;;;;;;;;;;;;;;;;;2205663;59;1278;-69
2021/11/16 13:44:18;;;;;;;;;;;;;;;;;;2202319;59;1767;-68
2021/11/16 13:46:56;;;;;;;;;;;;;;;;;;2202700;59;1802;-69
2021/11/16 13:49:31;;;;;;;;;;;;;;;;;;2202345;59;2651;-69
2021/11/16 13:52:09;;;;;;;;;;;;;;;;;;2202442;59;2688;-69
2021/11/16 13:54:43;;;;;;;;;;;;;;;;;;2202999;59;1356;-69
2021/11/16 13:57:19;;;;;;;;;;;;;;;;;;2203588;59;1111;-69
2021/11/16 13:59:57;;;;;;;;;;;;;;;;;;2206153;59;2340;-68
2021/11/16 14:02:30;;;;;;;;;;;;;;;;;;2203934;59;1284;-68
2021/11/16 14:05:07;;;;;;;;;;;;;;;;;;2202909;59;2134;-68
2021/11/16 14:07:51;;;;;;;;;;;;;;;;;;2203995;59;2219;-69
2021/11/16 14:10:24;;;;;;;;;;;;;;;;;;2204558;59;1983;-68
2021/11/16 14:13:11;;;;;;;;;;;;;;;;;;2203788;59;2252;-68
2021/11/16 14:15:44;;;;;;;;;;;;;;;;;;2203859;58;2287;-69
2021/11/16 14:18:18;;;;;;;;;;;;;;;;;;2204387;59;1402;-68
2021/11/16 14:20:59;;;;;;;;;;;;;;;;;;2204428;59;1307;-69
2021/11/16 14:23:36;;;;;;;;;;;;;;;;;;2219723;53;3621;-71
2021/11/16 14:26:11;;;;;;;;;;;;;;;;;;2221382;58;1118;-71
2021/11/16 14:28:44;;;;;;;;;;;;;;;;;;2215857;58;1775;-70
2021/11/16 14:31:20;;;;;;;;;;;;;;;;;;2221457;58;1928;-71
2021/11/16 14:33:54;;;;;;;;;;;;;;;;;;2221075;58;1318;-71
2021/11/16 14:36:32;;;;;;;;;;;;;;;;;;2220697;58;1307;-70
2021/11/16 14:39:10;;;;;;;;;;;;;;;;;;2221150;58;1215;-71
2021/11/16 14:41:45;;;;;;;;;;;;;;;;;;2220665;58;1586;-71
2021/11/16 14:44:19;;;;;;;;;;;;;;;;;;2216908;58;1492;-71
2021/11/16 14:46:53;;;;;;;;;;;;;;;;;;2221026;58;1311;-70
2021/11/16 14:49:28;;;;;;;;;;;;;;;;;;2219670;58;2680;-71
2021/11/16 14:52:01;;;;;;;;;;;;;;;;;;2219329;58;2595;-71
2021/11/16 14:54:37;;;;;;;;;;;;;;;;;;2220806;58;1269;-71
2021/11/16 14:57:10;;;;;;;;;;;;;;;;;;2221559;58;1543;-71
2021/11/16 14:59:44;;;;;;;;;;;;;;;;;;2220516;58;1287;-71
2021/11/16 15:02:17;;;;;;;;;;;;;;;;;;2220403;58;1207;-71
2021/11/16 15:04:52;;;;;;;;;;;;;;;;;;2219717;58;1698;-70
2021/11/16 15:07:28;;;;;;;;;;;;;;;;;;2221013;58;2050;-70
2021/11/16 15:10:06;;;;;;;;;;;;;;;;;;2221336;58;1651;-71
2021/11/16 15:12:40;;;;;;;;;;;;;;;;;;2219932;58;1931;-70
2021/11/16 15:15:13;;;;;;;;;;;;;;;;;;2219272;58;1184;-71
2021/11/16 15:17:47;;;;;;;;;;;;;;;;;;2221934;58;1213;-70
2021/11/16 15:20:36;;;;;;;;;;;;;;;;;;2220666;58;1401;-71
2021/11/16 15:23:10;;;;;;;;;;;;;;;;;;2220754;58;1415;-72
2021/11/16 15:25:49;;;;;;;;;;;;;;;;;;2219616;58;1336;-71
2021/11/16 15:28:24;;;;;;;;;;;;;;;;;;2221289;58;1180;-70
2021/11/16 15:30:58;;;;;;;;;;;;;;;;;;2219469;58;1996;-70
2021/11/16 15:33:33;;;;;;;;;;;;;;;;;;2221275;58;1203;-70
2021/11/16 15:36:12;;;;;;;;;;;;;;;;;;2221101;58;1356;-71
2021/11/16 15:38:48;;;;;;;;;;;;;;;;;;2220012;58;1309;-70
2021/11/16 15:41:32;;;;;;;;;;;;;;;;;;2220227;58;1474;-70
2021/11/16 15:47:13;;;;;;;;;;;;;;;;;;2218497;58;1247;-70
2021/11/16 15:58:23;;;;;;;;;;;;;;;;;;2220499;58;1212;-70
2021/11/16 16:00:58;;;;;;;;;;;;;;;;;;2219830;58;1402;-70
2021/11/16 16:03:32;;;;;;;;;;;;;;;;;;2221401;58;1434;-70
2021/11/16 16:06:07;;;;;;;;;;;;;;;;;;2219586;58;1764;-70
2021/11/16 16:08:44;;;;;;;;;;;;;;;;;;2221241;58;1228;-70
2021/11/16 16:11:18;;;;;;;;;;;;;;;;;;2215628;58;2001;-71
2021/11/16 16:13:56;;;;;;;;;;;;;;;;;;2221006;58;1204;-70
2021/11/16 16:16:31;;;;;;;;;;;;;;;;;;2219625;58;1220;-70
2021/11/16 16:19:04;;;;;;;;;;;;;;;;;;2221007;58;1252;-70
2021/11/16 16:21:37;;;;;;;;;;;;;;;;;;2220781;58;1246;-70
2021/11/16 16:24:10;;;;;;;;;;;;;;;;;;2221743;58;1644;-70
2021/11/16 16:26:44;;;;;;;;;;;;;;;;;;2219970;58;1286;-71
2021/11/16 16:29:21;;;;;;;;;;;;;;;;;;2220251;58;1178;-70
2021/11/16 16:31:54;;;;;;;;;;;;;;;;;;2219579;58;1979;-70
2021/11/16 16:34:28;;;;;;;;;;;;;;;;;;2219081;58;1269;-70
2021/11/16 16:37:01;;;;;;;;;;;;;;;;;;2220612;58;1295;-71
2021/11/16 16:39:35;;;;;;;;;;;;;;;;;;2218976;58;1700;-71
2021/11/16 16:42:08;;;;;;;;;;;;;;;;;;2219629;58;1206;-70
2021/11/16 16:44:46;;;;;;;;;;;;;;;;;;2220093;58;1730;-70
2021/11/16 16:47:20;;;;;;;;;;;;;;;;;;2220554;58;1415;-70
2021/11/16 16:49:53;;;;;;;;;;;;;;;;;;2220597;58;1673;-70
2021/11/16 16:52:27;;;;;;;;;;;;;;;;;;2219502;59;2514;-70
2021/11/16 16:55:00;;;;;;;;;;;;;;;;;;2219509;58;2908;-70
2021/11/16 16:57:34;;;;;;;;;;;;;;;;;;2220107;58;1244;-70
2021/11/16 17:00:12;;;;;;;;;;;;;;;;;;2219441;58;1913;-70
2021/11/16 17:02:47;;;;;;;;;;;;;;;;;;2220575;58;2141;-70
2021/11/16 17:05:20;;;;;;;;;;;;;;;;;;2220476;58;2276;-70
2021/11/16 17:07:54;;;;;;;;;;;;;;;;;;2221873;58;2220;-70
2021/11/16 17:10:27;;;;;;;;;;;;;;;;;;2219609;58;1779;-70
2021/11/16 17:13:00;;;;;;;;;;;;;;;;;;2220391;58;2004;-71
2021/11/16 17:15:36;;;;;;;;;;;;;;;;;;2219591;58;1580;-70
2021/11/16 17:18:10;;;;;;;;;;;;;;;;;;2220446;58;1697;-71
2021/11/16 17:20:43;;;;;;;;;;;;;;;;;;2221167;58;1173;-70
2021/11/16 17:23:16;;;;;;;;;;;;;;;;;;2221278;58;1411;-71
2021/11/16 17:25:49;;;;;;;;;;;;;;;;;;2220882;58;1330;-71
2021/11/16 17:28:23;;;;;;;;;;;;;;;;;;2220998;58;1614;-71
2021/11/16 17:30:58;;;;;;;;;;;;;;;;;;2220857;58;1283;-70
2021/11/16 17:33:32;;;;;;;;;;;;;;;;;;2220469;58;1988;-71
2021/11/16 17:36:06;;;;;;;;;;;;;;;;;;2221083;58;1301;-70
2021/11/16 17:38:40;;;;;;;;;;;;;;;;;;2221183;66;1284;-70
2021/11/16 17:41:13;;;;;;;;;;;;;;;;;;2220260;58;1609;-71
2021/11/16 17:43:46;;;;;;;;;;;;;;;;;;2218258;66;2212;-71
2021/11/16 17:46:22;;;;;;;;;;;;;;;;;;2220490;66;1243;-70
2021/11/16 17:48:56;;;;;;;;;;;;;;;;;;2221389;66;1242;-71
2021/11/16 17:51:29;;;;;;;;;;;;;;;;;;2221372;58;1981;-70
2021/11/16 17:54:03;;;;;;;;;;;;;;;;;;2219861;58;2926;-70
2021/11/16 17:56:36;;;;;;;;;;;;;;;;;;2219250;58;1831;-70
2021/11/16 17:59:10;;;;;;;;;;;;;;;;;;2215213;58;2122;-71
2021/11/16 18:01:46;;;;;;;;;;;;;;;;;;2216928;58;1846;-71
2021/11/16 18:04:35;;;;;;;;;;;;;;;;;;2218080;58;1768;-71
2021/11/16 18:09:54;;;;;;;;;;;;;;;;;;2212787;58;1985;-71
2021/11/16 18:12:28;;;;;;;;;;;;;;;;;;2216811;58;1984;-70
2021/11/16 18:15:02;;;;;;;;;;;;;;;;;;2219293;58;1987;-70
2021/11/16 18:17:38;;;;;;;;;;;;;;;;;;2212639;58;2031;-71
2021/11/16 18:20:12;;;;;;;;;;;;;;;;;;2215976;58;2074;-71
2021/11/16 18:22:45;;;;;;;;;;;;;;;;;;2216436;58;1880;-71
2021/11/16 18:25:20;;;;;;;;;;;;;;;;;;2215502;58;2051;-70